sensor_id;sensor_type;location;lat;lon;timestamp;pressure;altitude;pressure_sealevel;temperature;humidity
4085;BME280;2057;50.858;6.572;2023-07-09T00:01:41;100524.69;;;22.82;87.34
4085;BME280;2057;50.858;6.572;2023-07-09T00:04:09;100532.41;;;22.85;85.84
4085;BME280;2057;50.858;6.572;2023-07-09T00:06:38;100528.16;;;22.56;86.28
4085;BME280;2057;50.858;6.572;2023-07-09T00:09:05;100526.41;;;22.74;84.61
4085;BME280;2057;50.858;6.572;2023-07-09T00:11:31;100522.06;;;22.36;86.03
4085;BME280;2057;50.858;6.572;2023-07-09T00:13:56;100523.81;;;22.46;86.98
4085;BME280;2057;50.858;6.572;2023-07-09T00:16:24;100520.38;;;22.61;85.88
4085;BME280;2057;50.858;6.572;2023-07-09T00:18:50;100534.19;;;22.54;86.15
4085;BME280;2057;50.858;6.572;2023-07-09T00:21:17;100529.00;;;22.40;86.83
4085;BME280;2057;50.858;6.572;2023-07-09T00:23:43;100527.25;;;22.40;86.83
4085;BME280;2057;50.858;6.572;2023-07-09T00:26:09;100522.97;;;22.47;86.20
4085;BME280;2057;50.858;6.572;2023-07-09T00:28:35;100519.53;;;22.58;84.70
4085;BME280;2057;50.858;6.572;2023-07-09T00:31:01;100522.94;;;22.32;85.53
4085;BME280;2057;50.858;6.572;2023-07-09T00:33:26;100520.31;;;22.18;87.06
4085;BME280;2057;50.858;6.572;2023-07-09T00:35:57;100527.22;;;22.34;86.80
4085;BME280;2057;50.858;6.572;2023-07-09T00:38:23;100524.63;;;22.31;86.45
4085;BME280;2057;50.858;6.572;2023-07-09T00:41:00;100521.22;;;22.43;85.77
4085;BME280;2057;50.858;6.572;2023-07-09T00:43:31;100520.31;;;22.30;85.83
4085;BME280;2057;50.858;6.572;2023-07-09T00:49:00;100522.81;;;21.79;87.27
4085;BME280;2057;50.858;6.572;2023-07-09T00:51:27;100527.84;;;21.56;88.96
4085;BME280;2057;50.858;6.572;2023-07-09T00:53:58;100534.69;;;21.43;89.33
4085;BME280;2057;50.858;6.572;2023-07-09T00:56:27;100523.25;;;21.00;92.03
4085;BME280;2057;50.858;6.572;2023-07-09T00:58:55;100531.56;;;20.68;94.37
4085;BME280;2057;50.858;6.572;2023-07-09T01:01:21;100528.03;;;20.52;94.66
4085;BME280;2057;50.858;6.572;2023-07-09T01:03:52;100534.06;;;20.58;95.35
4085;BME280;2057;50.858;6.572;2023-07-09T01:06:28;100532.22;;;20.43;96.43
4085;BME280;2057;50.858;6.572;2023-07-09T01:08:58;100531.66;;;20.73;94.95
4085;BME280;2057;50.858;6.572;2023-07-09T01:11:26;100527.63;;;21.12;93.55
4085;BME280;2057;50.858;6.572;2023-07-09T01:13:54;100532.84;;;21.23;92.32
4085;BME280;2057;50.858;6.572;2023-07-09T01:16:27;100531.19;;;21.30;92.22
4085;BME280;2057;50.858;6.572;2023-07-09T01:18:55;100525.97;;;21.21;92.02
4085;BME280;2057;50.858;6.572;2023-07-09T01:21:20;100531.19;;;21.28;92.95
4085;BME280;2057;50.858;6.572;2023-07-09T01:23:48;100530.41;;;21.51;91.31
4085;BME280;2057;50.858;6.572;2023-07-09T01:26:17;100528.81;;;21.67;90.54
4085;BME280;2057;50.858;6.572;2023-07-09T01:28:43;100532.28;;;21.77;90.28
4085;BME280;2057;50.858;6.572;2023-07-09T01:31:13;100531.41;;;21.75;89.34
4085;BME280;2057;50.858;6.572;2023-07-09T01:33:40;100531.28;;;21.50;91.06
4085;BME280;2057;50.858;6.572;2023-07-09T01:36:07;100530.44;;;21.54;91.08
4085;BME280;2057;50.858;6.572;2023-07-09T01:38:33;100537.28;;;21.49;91.55
4085;BME280;2057;50.858;6.572;2023-07-09T01:41:00;100542.41;;;21.37;91.45
4085;BME280;2057;50.858;6.572;2023-07-09T01:43:26;100539.91;;;21.55;91.42
4085;BME280;2057;50.858;6.572;2023-07-09T01:45:52;100539.81;;;21.40;91.31
4085;BME280;2057;50.858;6.572;2023-07-09T01:48:18;100531.06;;;21.10;92.04
4085;BME280;2057;50.858;6.572;2023-07-09T01:50:46;100532.63;;;20.91;93.86
4085;BME280;2057;50.858;6.572;2023-07-09T01:53:14;100532.81;;;21.17;92.83
4085;BME280;2057;50.858;6.572;2023-07-09T01:55:41;100529.31;;;21.06;93.61
4085;BME280;2057;50.858;6.572;2023-07-09T01:58:06;100534.56;;;21.18;92.37
4085;BME280;2057;50.858;6.572;2023-07-09T02:00:34;100532.88;;;21.26;92.17
4085;BME280;2057;50.858;6.572;2023-07-09T02:03:06;100532.94;;;21.37;91.80
4085;BME280;2057;50.858;6.572;2023-07-09T02:05:32;100537.28;;;21.41;91.15
4085;BME280;2057;50.858;6.572;2023-07-09T02:07:58;100526.97;;;21.51;90.41
4085;BME280;2057;50.858;6.572;2023-07-09T02:10:24;100528.66;;;21.44;90.61
4085;BME280;2057;50.858;6.572;2023-07-09T02:12:49;100530.44;;;21.56;90.46
4085;BME280;2057;50.858;6.572;2023-07-09T02:15:15;100529.63;;;21.63;90.57
4085;BME280;2057;50.858;6.572;2023-07-09T02:17:41;100532.13;;;21.51;91.27
4085;BME280;2057;50.858;6.572;2023-07-09T02:20:10;100528.66;;;21.47;92.51
4085;BME280;2057;50.858;6.572;2023-07-09T02:22:37;100535.59;;;21.51;92.08
4085;BME280;2057;50.858;6.572;2023-07-09T02:25:04;100534.59;;;21.30;92.12
4085;BME280;2057;50.858;6.572;2023-07-09T02:27:31;100549.00;;;20.94;94.44
4085;BME280;2057;50.858;6.572;2023-07-09T02:29:56;100539.50;;;20.84;95.52
4085;BME280;2057;50.858;6.572;2023-07-09T02:32:24;100538.75;;;21.04;94.80
4085;BME280;2057;50.858;6.572;2023-07-09T02:34:51;100534.50;;;21.12;93.93
4085;BME280;2057;50.858;6.572;2023-07-09T02:37:21;100532.81;;;21.17;94.30
4085;BME280;2057;50.858;6.572;2023-07-09T02:39:47;100535.41;;;21.15;93.90
4085;BME280;2057;50.858;6.572;2023-07-09T02:42:15;100534.53;;;21.15;94.18
4085;BME280;2057;50.858;6.572;2023-07-09T02:44:41;100537.06;;;21.12;94.08
4085;BME280;2057;50.858;6.572;2023-07-09T02:47:07;100548.00;;;20.77;95.58
4085;BME280;2057;50.858;6.572;2023-07-09T02:49:33;100547.16;;;20.76;95.38
4085;BME280;2057;50.858;6.572;2023-07-09T02:51:59;100544.66;;;20.84;95.02
4085;BME280;2057;50.858;6.572;2023-07-09T02:54:24;100544.72;;;20.93;94.71
4085;BME280;2057;50.858;6.572;2023-07-09T02:56:49;100549.75;;;20.76;95.64
4085;BME280;2057;50.858;6.572;2023-07-09T02:59:15;100547.31;;;20.93;94.61
4085;BME280;2057;50.858;6.572;2023-07-09T03:01:42;100544.75;;;21.01;93.89
4085;BME280;2057;50.858;6.572;2023-07-09T03:04:08;100548.22;;;21.02;93.60
4085;BME280;2057;50.858;6.572;2023-07-09T03:06:35;100550.84;;;21.08;93.08
4085;BME280;2057;50.858;6.572;2023-07-09T03:09:02;100549.09;;;21.05;93.16
4085;BME280;2057;50.858;6.572;2023-07-09T03:11:31;100560.25;;;20.99;93.15
4085;BME280;2057;50.858;6.572;2023-07-09T03:13:58;100552.44;;;20.90;94.58
4085;BME280;2057;50.858;6.572;2023-07-09T03:16:26;100549.00;;;20.93;93.46
4085;BME280;2057;50.858;6.572;2023-07-09T03:18:52;100548.91;;;20.77;94.49
4085;BME280;2057;50.858;6.572;2023-07-09T03:21:17;100561.47;;;20.42;96.27
4085;BME280;2057;50.858;6.572;2023-07-09T03:23:42;100558.91;;;20.46;95.98
4085;BME280;2057;50.858;6.572;2023-07-09T03:26:10;100558.78;;;20.32;97.15
4085;BME280;2057;50.858;6.572;2023-07-09T03:28:35;100556.03;;;20.17;98.79
4085;BME280;2057;50.858;6.572;2023-07-09T03:31:01;100564.59;;;20.13;98.89
4085;BME280;2057;50.858;6.572;2023-07-09T03:33:26;100562.88;;;20.12;99.03
4085;BME280;2057;50.858;6.572;2023-07-09T03:35:52;100567.44;;;20.36;97.67
4085;BME280;2057;50.858;6.572;2023-07-09T03:38:18;100570.94;;;20.44;97.12
4085;BME280;2057;50.858;6.572;2023-07-09T03:40:44;100567.63;;;20.56;96.24
4085;BME280;2057;50.858;6.572;2023-07-09T03:43:11;100566.75;;;20.59;95.18
4085;BME280;2057;50.858;6.572;2023-07-09T03:45:39;100571.03;;;20.57;95.44
4085;BME280;2057;50.858;6.572;2023-07-09T03:48:05;100563.97;;;20.34;96.95
4085;BME280;2057;50.858;6.572;2023-07-09T03:50:30;100575.22;;;20.41;96.91
4085;BME280;2057;50.858;6.572;2023-07-09T03:52:56;100575.22;;;20.44;97.05
4085;BME280;2057;50.858;6.572;2023-07-09T03:55:21;100571.88;;;20.52;96.58
4085;BME280;2057;50.858;6.572;2023-07-09T03:57:47;100575.31;;;20.50;96.61
4085;BME280;2057;50.858;6.572;2023-07-09T04:00:13;100572.81;;;20.61;96.08
4085;BME280;2057;50.858;6.572;2023-07-09T04:02:40;100571.94;;;20.60;95.83
4085;BME280;2057;50.858;6.572;2023-07-09T04:05:06;100585.66;;;20.58;95.94
4085;BME280;2057;50.858;6.572;2023-07-09T04:07:33;100584.88;;;20.63;95.67
4085;BME280;2057;50.858;6.572;2023-07-09T04:09:59;100585.88;;;20.78;95.07
4085;BME280;2057;50.858;6.572;2023-07-09T04:12:27;100581.53;;;20.72;95.52
4085;BME280;2057;50.858;6.572;2023-07-09T04:14:52;100586.75;;;20.78;94.82
4085;BME280;2057;50.858;6.572;2023-07-09T04:17:17;100581.56;;;20.74;95.46
4085;BME280;2057;50.858;6.572;2023-07-09T04:19:43;100579.78;;;20.71;95.53
4085;BME280;2057;50.858;6.572;2023-07-09T04:22:11;100584.09;;;20.72;95.23
4085;BME280;2057;50.858;6.572;2023-07-09T04:24:36;100588.38;;;20.72;96.19
4085;BME280;2057;50.858;6.572;2023-07-09T04:27:02;100582.47;;;20.82;95.31
4085;BME280;2057;50.858;6.572;2023-07-09T04:29:31;100580.78;;;20.84;94.97
4085;BME280;2057;50.858;6.572;2023-07-09T04:32:02;100579.97;;;20.93;95.40
4085;BME280;2057;50.858;6.572;2023-07-09T04:34:27;100577.47;;;21.00;95.88
4085;BME280;2057;50.858;6.572;2023-07-09T04:36:53;100585.22;;;21.04;96.15
4085;BME280;2057;50.858;6.572;2023-07-09T04:39:18;100581.75;;;21.00;97.26
4085;BME280;2057;50.858;6.572;2023-07-09T04:41:43;100578.31;;;20.98;97.53
4085;BME280;2057;50.858;6.572;2023-07-09T04:44:09;100579.13;;;20.95;97.15
4085;BME280;2057;50.858;6.572;2023-07-09T04:46:34;100571.53;;;21.11;97.29
4085;BME280;2057;50.858;6.572;2023-07-09T04:48:59;100572.34;;;21.07;97.84
4085;BME280;2057;50.858;6.572;2023-07-09T04:51:26;100574.91;;;21.02;97.79
4085;BME280;2057;50.858;6.572;2023-07-09T04:53:51;100576.59;;;21.00;97.13
4085;BME280;2057;50.858;6.572;2023-07-09T04:56:17;100578.31;;;21.01;96.32
4085;BME280;2057;50.858;6.572;2023-07-09T04:58:43;100580.06;;;21.02;96.12
4085;BME280;2057;50.858;6.572;2023-07-09T05:01:08;100575.81;;;21.09;95.73
4085;BME280;2057;50.858;6.572;2023-07-09T05:03:34;100579.31;;;21.17;95.53
4085;BME280;2057;50.858;6.572;2023-07-09T05:05:59;100577.63;;;21.25;95.32
4085;BME280;2057;50.858;6.572;2023-07-09T05:08:24;100570.78;;;21.30;95.01
4085;BME280;2057;50.858;6.572;2023-07-09T05:10:51;100568.22;;;21.34;95.00
4085;BME280;2057;50.858;6.572;2023-07-09T05:13:18;100563.06;;;21.34;94.70
4085;BME280;2057;50.858;6.572;2023-07-09T05:15:45;100567.38;;;21.41;94.21
4085;BME280;2057;50.858;6.572;2023-07-09T05:18:12;100568.28;;;21.43;94.47
4085;BME280;2057;50.858;6.572;2023-07-09T05:20:47;100567.38;;;21.38;94.60
4085;BME280;2057;50.858;6.572;2023-07-09T05:23:12;100561.44;;;21.51;93.59
4085;BME280;2057;50.858;6.572;2023-07-09T05:25:38;100561.44;;;21.50;93.00
4085;BME280;2057;50.858;6.572;2023-07-09T05:28:04;100557.09;;;21.49;93.40
4085;BME280;2057;50.858;6.572;2023-07-09T05:30:30;100562.34;;;21.59;93.03
4085;BME280;2057;50.858;6.572;2023-07-09T05:32:56;100557.19;;;21.58;93.21
4085;BME280;2057;50.858;6.572;2023-07-09T05:35:24;100556.34;;;21.67;94.27
4085;BME280;2057;50.858;6.572;2023-07-09T05:37:51;100558.09;;;21.71;93.74
4085;BME280;2057;50.858;6.572;2023-07-09T05:40:16;100564.16;;;21.76;94.73
4085;BME280;2057;50.858;6.572;2023-07-09T05:42:41;100558.97;;;21.77;94.36
4085;BME280;2057;50.858;6.572;2023-07-09T05:45:07;100559.03;;;21.90;94.46
4085;BME280;2057;50.858;6.572;2023-07-09T05:47:33;100560.75;;;21.94;94.66
4085;BME280;2057;50.858;6.572;2023-07-09T05:49:58;100556.50;;;22.04;94.81
4085;BME280;2057;50.858;6.572;2023-07-09T05:52:23;100559.06;;;22.01;94.56
4085;BME280;2057;50.858;6.572;2023-07-09T05:54:50;100565.97;;;22.02;95.30
4085;BME280;2057;50.858;6.572;2023-07-09T05:57:16;100559.06;;;22.04;95.03
4085;BME280;2057;50.858;6.572;2023-07-09T05:59:41;100566.84;;;22.21;94.39
4085;BME280;2057;50.858;6.572;2023-07-09T06:02:10;100566.88;;;22.35;94.08
4085;BME280;2057;50.858;6.572;2023-07-09T06:04:36;100561.75;;;22.50;94.94
4085;BME280;2057;50.858;6.572;2023-07-09T06:07:02;100571.28;;;22.59;93.59
4085;BME280;2057;50.858;6.572;2023-07-09T06:09:29;100571.28;;;22.67;94.36
4085;BME280;2057;50.858;6.572;2023-07-09T06:11:55;100576.44;;;22.70;94.45
4085;BME280;2057;50.858;6.572;2023-07-09T06:14:20;100579.91;;;22.78;93.44
4085;BME280;2057;50.858;6.572;2023-07-09T06:16:45;100579.91;;;22.75;92.20
4085;BME280;2057;50.858;6.572;2023-07-09T06:19:11;100578.19;;;22.88;92.06
4085;BME280;2057;50.858;6.572;2023-07-09T06:21:36;100579.03;;;22.90;91.46
4085;BME280;2057;50.858;6.572;2023-07-09T06:24:01;100576.44;;;22.98;92.17
4085;BME280;2057;50.858;6.572;2023-07-09T06:26:27;100574.72;;;23.14;91.98
4085;BME280;2057;50.858;6.572;2023-07-09T06:28:52;100575.59;;;23.27;91.87
4085;BME280;2057;50.858;6.572;2023-07-09T06:31:17;100567.75;;;23.39;91.14
4085;BME280;2057;50.858;6.572;2023-07-09T06:33:47;100578.09;;;23.53;90.21
4085;BME280;2057;50.858;6.572;2023-07-09T06:36:12;100577.22;;;23.62;88.33
4085;BME280;2057;50.858;6.572;2023-07-09T06:38:37;100577.19;;;23.68;87.26
4085;BME280;2057;50.858;6.572;2023-07-09T06:41:03;100580.59;;;23.76;86.61
4085;BME280;2057;50.858;6.572;2023-07-09T06:43:28;100581.47;;;23.78;87.49
4085;BME280;2057;50.858;6.572;2023-07-09T06:45:57;100583.13;;;23.87;87.98
4085;BME280;2057;50.858;6.572;2023-07-09T06:48:28;100576.19;;;24.00;86.92
4085;BME280;2057;50.858;6.572;2023-07-09T06:50:55;100579.66;;;24.05;87.13
4085;BME280;2057;50.858;6.572;2023-07-09T06:53:21;100589.09;;;24.14;86.08
4085;BME280;2057;50.858;6.572;2023-07-09T06:55:47;100583.00;;;24.24;86.65
4085;BME280;2057;50.858;6.572;2023-07-09T06:58:15;100582.97;;;24.29;86.51
4085;BME280;2057;50.858;6.572;2023-07-09T07:00:41;100581.19;;;24.37;85.36
4085;BME280;2057;50.858;6.572;2023-07-09T07:03:06;100583.72;;;24.43;84.14
4085;BME280;2057;50.858;6.572;2023-07-09T07:05:32;100581.00;;;24.61;84.06
4085;BME280;2057;50.858;6.572;2023-07-09T07:07:57;100579.22;;;24.70;83.51
4085;BME280;2057;50.858;6.572;2023-07-09T07:10:23;100568.72;;;24.84;83.93
4085;BME280;2057;50.858;6.572;2023-07-09T07:12:49;100572.13;;;24.91;83.28
4085;BME280;2057;50.858;6.572;2023-07-09T07:15:16;100577.28;;;24.97;84.68
4085;BME280;2057;50.858;6.572;2023-07-09T07:17:42;100576.41;;;24.98;84.41
4085;BME280;2057;50.858;6.572;2023-07-09T07:20:09;100571.91;;;25.13;83.90
4085;BME280;2057;50.858;6.572;2023-07-09T07:22:36;100573.53;;;25.26;84.16
4085;BME280;2057;50.858;6.572;2023-07-09T07:25:02;100571.72;;;25.31;82.16
4085;BME280;2057;50.858;6.572;2023-07-09T07:27:28;100571.66;;;25.41;78.12
4085;BME280;2057;50.858;6.572;2023-07-09T07:29:53;100573.34;;;25.45;78.79
4085;BME280;2057;50.858;6.572;2023-07-09T07:32:19;100572.25;;;25.64;79.16
4085;BME280;2057;50.858;6.572;2023-07-09T07:34:46;100567.69;;;25.82;78.27
4085;BME280;2057;50.858;6.572;2023-07-09T07:37:13;100570.28;;;25.83;76.44
4085;BME280;2057;50.858;6.572;2023-07-09T07:39:38;100570.94;;;25.99;74.36
4085;BME280;2057;50.858;6.572;2023-07-09T07:42:04;100561.28;;;26.11;75.08
4085;BME280;2057;50.858;6.572;2023-07-09T07:44:31;100570.63;;;26.23;75.30
4085;BME280;2057;50.858;6.572;2023-07-09T07:46:56;100569.63;;;26.33;73.72
4085;BME280;2057;50.858;6.572;2023-07-09T07:49:22;100563.41;;;26.43;73.31
4085;BME280;2057;50.858;6.572;2023-07-09T07:51:47;100557.09;;;26.57;73.02
4085;BME280;2057;50.858;6.572;2023-07-09T07:54:13;100557.78;;;26.68;72.84
4085;BME280;2057;50.858;6.572;2023-07-09T07:56:40;100554.13;;;26.80;73.53
4085;BME280;2057;50.858;6.572;2023-07-09T07:59:05;100554.78;;;26.93;74.11
4085;BME280;2057;50.858;6.572;2023-07-09T08:01:30;100555.53;;;27.00;73.26
4085;BME280;2057;50.858;6.572;2023-07-09T08:03:56;100554.66;;;26.99;74.81
4085;BME280;2057;50.858;6.572;2023-07-09T08:06:21;100556.25;;;27.08;73.43
4085;BME280;2057;50.858;6.572;2023-07-09T08:08:47;100549.06;;;27.21;73.99
4085;BME280;2057;50.858;6.572;2023-07-09T08:11:15;100552.44;;;27.26;73.56
4085;BME280;2057;50.858;6.572;2023-07-09T08:13:42;100552.16;;;27.40;73.14
4085;BME280;2057;50.858;6.572;2023-07-09T08:16:08;100539.50;;;27.65;73.12
4085;BME280;2057;50.858;6.572;2023-07-09T08:18:36;100543.81;;;27.68;71.59
4085;BME280;2057;50.858;6.572;2023-07-09T08:21:02;100552.13;;;27.85;70.47
4085;BME280;2057;50.858;6.572;2023-07-09T08:23:28;100550.31;;;27.89;70.81
4085;BME280;2057;50.858;6.572;2023-07-09T08:25:57;100556.00;;;28.05;69.52
4085;BME280;2057;50.858;6.572;2023-07-09T08:28:25;100553.00;;;28.25;67.46
4085;BME280;2057;50.858;6.572;2023-07-09T08:30:52;100549.28;;;28.34;66.95
4085;BME280;2057;50.858;6.572;2023-07-09T08:33:18;100548.47;;;28.32;69.07
4085;BME280;2057;50.858;6.572;2023-07-09T08:35:43;100553.53;;;28.40;69.37
4085;BME280;2057;50.858;6.572;2023-07-09T08:38:09;100544.63;;;28.47;68.63
4085;BME280;2057;50.858;6.572;2023-07-09T08:40:43;100539.00;;;28.64;67.42
4085;BME280;2057;50.858;6.572;2023-07-09T08:46:18;100538.22;;;28.95;67.13
4085;BME280;2057;50.858;6.572;2023-07-09T08:48:47;100542.63;;;28.93;63.67
4085;BME280;2057;50.858;6.572;2023-07-09T08:51:26;100537.84;;;29.09;66.36
4085;BME280;2057;50.858;6.572;2023-07-09T08:54:00;100535.47;;;29.33;66.94
4085;BME280;2057;50.858;6.572;2023-07-09T08:56:32;100523.84;;;29.43;67.67
4085;BME280;2057;50.858;6.572;2023-07-09T08:59:02;100523.50;;;29.54;64.48
4085;BME280;2057;50.858;6.572;2023-07-09T09:01:38;100522.41;;;29.63;61.14
4085;BME280;2057;50.858;6.572;2023-07-09T09:06:41;100513.25;;;29.76;61.60
4085;BME280;2057;50.858;6.572;2023-07-09T09:09:26;100509.31;;;29.91;60.20
4085;BME280;2057;50.858;6.572;2023-07-09T09:12:18;100503.81;;;30.00;62.12
4085;BME280;2057;50.858;6.572;2023-07-09T09:14:56;100500.69;;;30.16;62.30
4085;BME280;2057;50.858;6.572;2023-07-09T09:17:25;100506.66;;;30.21;62.58
4085;BME280;2057;50.858;6.572;2023-07-09T09:19:59;100492.28;;;30.33;62.07
4085;BME280;2057;50.858;6.572;2023-07-09T09:22:30;100496.34;;;30.42;56.16
4085;BME280;2057;50.858;6.572;2023-07-09T09:25:16;100491.19;;;30.65;49.82
4085;BME280;2057;50.858;6.572;2023-07-09T09:27:45;100500.47;;;30.76;50.38
4085;BME280;2057;50.858;6.572;2023-07-09T09:30:17;100494.56;;;30.94;50.15
4085;BME280;2057;50.858;6.572;2023-07-09T09:32:45;100489.81;;;31.04;49.22
4085;BME280;2057;50.858;6.572;2023-07-09T09:35:17;100490.31;;;31.16;48.35
4085;BME280;2057;50.858;6.572;2023-07-09T09:37:54;100497.22;;;31.18;48.27
4085;BME280;2057;50.858;6.572;2023-07-09T09:40:20;100493.97;;;31.35;49.41
4085;BME280;2057;50.858;6.572;2023-07-09T09:42:53;100490.47;;;31.35;47.90
4085;BME280;2057;50.858;6.572;2023-07-09T09:45:24;100484.94;;;31.42;47.00
4085;BME280;2057;50.858;6.572;2023-07-09T09:47:51;100482.63;;;31.57;47.40
4085;BME280;2057;50.858;6.572;2023-07-09T09:50:20;100477.94;;;31.67;46.53
4085;BME280;2057;50.858;6.572;2023-07-09T09:52:47;100477.28;;;31.60;47.38
4085;BME280;2057;50.858;6.572;2023-07-09T09:55:19;100473.66;;;31.86;47.46
4085;BME280;2057;50.858;6.572;2023-07-09T09:57:49;100470.59;;;31.97;47.30
4085;BME280;2057;50.858;6.572;2023-07-09T10:00:21;100472.50;;;31.94;45.77
4085;BME280;2057;50.858;6.572;2023-07-09T10:02:48;100472.88;;;32.05;44.85
4085;BME280;2057;50.858;6.572;2023-07-09T10:05:21;100467.59;;;32.06;45.58
4085;BME280;2057;50.858;6.572;2023-07-09T10:10:33;100467.00;;;32.20;44.27
4085;BME280;2057;50.858;6.572;2023-07-09T10:13:18;100466.72;;;32.28;43.85
4085;BME280;2057;50.858;6.572;2023-07-09T10:16:10;100474.00;;;32.42;44.23
4085;BME280;2057;50.858;6.572;2023-07-09T10:21:18;100474.38;;;32.74;45.58
4085;BME280;2057;50.858;6.572;2023-07-09T10:24:00;100459.66;;;32.70;44.55
4085;BME280;2057;50.858;6.572;2023-07-09T10:40:10;100480.22;;;33.21;44.38
4085;BME280;2057;50.858;6.572;2023-07-09T10:42:44;100465.00;;;33.27;45.46
4085;BME280;2057;50.858;6.572;2023-07-09T10:45:18;100461.91;;;33.38;45.84
4085;BME280;2057;50.858;6.572;2023-07-09T10:47:59;100466.72;;;33.28;42.86
4085;BME280;2057;50.858;6.572;2023-07-09T10:50:30;100460.31;;;33.34;41.39
4085;BME280;2057;50.858;6.572;2023-07-09T10:53:14;100461.91;;;33.38;43.38
4085;BME280;2057;50.858;6.572;2023-07-09T10:55:47;100455.78;;;33.38;40.81
4085;BME280;2057;50.858;6.572;2023-07-09T11:00:52;100454.41;;;33.48;41.93
4085;BME280;2057;50.858;6.572;2023-07-09T11:05:58;100445.47;;;33.70;41.49
4085;BME280;2057;50.858;6.572;2023-07-09T11:08:29;100442.31;;;33.81;39.90
4085;BME280;2057;50.858;6.572;2023-07-09T11:11:03;100436.47;;;33.74;39.93
4085;BME280;2057;50.858;6.572;2023-07-09T11:13:45;100433.84;;;33.74;40.68
4085;BME280;2057;50.858;6.572;2023-07-09T11:16:27;100429.13;;;33.81;40.05
4085;BME280;2057;50.858;6.572;2023-07-09T11:19:02;100430.38;;;33.73;39.89
4085;BME280;2057;50.858;6.572;2023-07-09T11:21:28;100427.75;;;33.73;41.48
4085;BME280;2057;50.858;6.572;2023-07-09T11:23:57;100434.94;;;33.70;41.35
4085;BME280;2057;50.858;6.572;2023-07-09T11:26:30;100426.03;;;33.72;40.76
4085;BME280;2057;50.858;6.572;2023-07-09T11:29:13;100426.69;;;33.95;42.16
4085;BME280;2057;50.858;6.572;2023-07-09T11:31:42;100422.28;;;34.13;41.19
4085;BME280;2057;50.858;6.572;2023-07-09T11:34:18;100423.28;;;34.28;42.70
4085;BME280;2057;50.858;6.572;2023-07-09T11:39:22;100414.94;;;34.20;38.98
4085;BME280;2057;50.858;6.572;2023-07-09T11:41:52;100429.50;;;34.27;40.54
4085;BME280;2057;50.858;6.572;2023-07-09T11:44:23;100430.34;;;34.10;38.95
4085;BME280;2057;50.858;6.572;2023-07-09T11:49:52;100427.88;;;34.07;39.45
4085;BME280;2057;50.858;6.572;2023-07-09T11:52:25;100424.50;;;34.21;39.46
4085;BME280;2057;50.858;6.572;2023-07-09T11:54:51;100429.03;;;34.36;39.56
4085;BME280;2057;50.858;6.572;2023-07-09T11:57:17;100429.25;;;34.32;38.50
4085;BME280;2057;50.858;6.572;2023-07-09T11:59:43;100434.28;;;34.54;38.19
4085;BME280;2057;50.858;6.572;2023-07-09T12:02:18;100427.47;;;34.83;39.54
4085;BME280;2057;50.858;6.572;2023-07-09T12:04:48;100420.94;;;34.57;38.81
4085;BME280;2057;50.858;6.572;2023-07-09T12:07:16;100430.88;;;34.34;38.58
4085;BME280;2057;50.858;6.572;2023-07-09T12:09:47;100412.75;;;34.28;39.96
4085;BME280;2057;50.858;6.572;2023-07-09T12:12:26;100413.22;;;34.01;40.60
4085;BME280;2057;50.858;6.572;2023-07-09T12:14:53;100408.75;;;33.86;39.60
4085;BME280;2057;50.858;6.572;2023-07-09T12:17:18;100398.31;;;33.83;40.67
4085;BME280;2057;50.858;6.572;2023-07-09T12:19:44;100404.72;;;33.77;38.92
4085;BME280;2057;50.858;6.572;2023-07-09T12:22:17;100384.50;;;33.77;40.29
4085;BME280;2057;50.858;6.572;2023-07-09T12:24:44;100384.34;;;33.63;40.68
4085;BME280;2057;50.858;6.572;2023-07-09T12:27:19;100384.25;;;33.65;39.98
4085;BME280;2057;50.858;6.572;2023-07-09T12:29:45;100384.34;;;33.63;40.74
4085;BME280;2057;50.858;6.572;2023-07-09T12:32:13;100384.75;;;33.55;40.56
4085;BME280;2057;50.858;6.572;2023-07-09T12:34:42;100379.22;;;33.42;42.13
4085;BME280;2057;50.858;6.572;2023-07-09T12:37:28;100377.78;;;33.35;42.12
4085;BME280;2057;50.858;6.572;2023-07-09T12:39:59;100374.66;;;33.27;41.62
4085;BME280;2057;50.858;6.572;2023-07-09T12:42:30;100373.09;;;33.23;42.89
4085;BME280;2057;50.858;6.572;2023-07-09T12:44:56;100372.94;;;33.26;42.80
4085;BME280;2057;50.858;6.572;2023-07-09T12:47:24;100369.34;;;33.09;42.55
4085;BME280;2057;50.858;6.572;2023-07-09T12:49:50;100364.56;;;33.17;42.39
4085;BME280;2057;50.858;6.572;2023-07-09T12:52:21;100375.66;;;33.24;40.45
4085;BME280;2057;50.858;6.572;2023-07-09T12:55:01;100375.47;;;33.10;43.07
4085;BME280;2057;50.858;6.572;2023-07-09T12:57:28;100368.06;;;32.80;41.95
4085;BME280;2057;50.858;6.572;2023-07-09T12:59:54;100366.53;;;32.74;41.65
4085;BME280;2057;50.858;6.572;2023-07-09T13:02:27;100361.56;;;32.68;42.39
4085;BME280;2057;50.858;6.572;2023-07-09T13:05:03;100367.13;;;32.62;43.07
4085;BME280;2057;50.858;6.572;2023-07-09T13:07:36;100368.84;;;32.63;42.19
4085;BME280;2057;50.858;6.572;2023-07-09T13:10:21;100364.28;;;32.66;42.86
4085;BME280;2057;50.858;6.572;2023-07-09T13:12:51;100363.56;;;32.63;43.37
4085;BME280;2057;50.858;6.572;2023-07-09T13:17:48;100370.38;;;32.67;42.75
4085;BME280;2057;50.858;6.572;2023-07-09T13:20:14;100371.47;;;32.63;42.26
4085;BME280;2057;50.858;6.572;2023-07-09T13:22:42;100378.75;;;32.56;43.13
4085;BME280;2057;50.858;6.572;2023-07-09T13:25:08;100376.47;;;32.48;44.07
4085;BME280;2057;50.858;6.572;2023-07-09T13:27:36;100374.25;;;32.39;44.87
4085;BME280;2057;50.858;6.572;2023-07-09T13:30:02;100377.47;;;32.46;44.01
4085;BME280;2057;50.858;6.572;2023-07-09T13:32:28;100384.44;;;32.66;44.21
4085;BME280;2057;50.858;6.572;2023-07-09T13:34:54;100398.00;;;31.74;49.21
4085;BME280;2057;50.858;6.572;2023-07-09T13:37:19;100396.00;;;31.35;50.95
4085;BME280;2057;50.858;6.572;2023-07-09T13:39:45;100408.59;;;31.03;52.35
4085;BME280;2057;50.858;6.572;2023-07-09T13:42:14;100400.63;;;30.82;53.58
4085;BME280;2057;50.858;6.572;2023-07-09T13:44:43;100411.84;;;30.35;55.91
4085;BME280;2057;50.858;6.572;2023-07-09T13:47:17;100416.03;;;30.15;55.65
4085;BME280;2057;50.858;6.572;2023-07-09T13:49:44;100422.03;;;29.92;55.74
4085;BME280;2057;50.858;6.572;2023-07-09T13:52:19;100427.53;;;29.83;55.74
4085;BME280;2057;50.858;6.572;2023-07-09T13:54:46;100421.50;;;29.52;56.64
4085;BME280;2057;50.858;6.572;2023-07-09T13:57:20;100450.91;;;29.32;58.34